Terminal Aerodrome Forecast
Issued by NWS Norman, OK

Home | Current Version | Previous Version | Text Only | Print | Product List | Glossary On
Versions: 1 2 3 4 5 6 7 8 9 10 11 12 13 14 15 16 17 18 19 20 21 22 23 24 25 26 27 28 29
000
FTUS44 KOUN 311128
TAFSPS
TAF
KSPS 311128Z 3112/0112 02013KT P6SM OVC007
      TEMPO 3112/3114 3SM -DZ OVC005
     FM311600 01014KT P6SM OVC015
     FM312000 01014KT P6SM BKN035
     FM010900 05005KT 4SM BR SCT007=

USA.gov is the U.S. government's official web portal to all federal, state and local government web resources and services.